Currie, Australia
Current Conditions -  °F | °C
As of 6:30 AM on Sunday 26 Oct 2014 (Local Time) from YMAV Reporting Station
Overcast Overcast  
Wind Chill: 55°   Ceiling: 2000
Heat Index: 55°   Visibility: 6mi
Dew Point: 48°   Wind: 6mph
Humidity: 77%   Direction: 190°S
Pressure: 29.94"   Gusts: NA
Location:  39.93°S, 143.85°E
Report Text: YMAV 251930Z AUTO 19005KT 9999 // OVC020 13/09 Q1014
Loading
Personal Weather Stations






























Interactive Weather Map
Tropical Storm Tracking
New forecast layout! Learn more

10-Day Weather Forecast

Advertisements
Track Severe Weather on mobile